createdAt,value
2022-07-31T00:00:23.436Z,2.90
2022-07-31T00:02:51.017Z,3.13
2022-07-31T00:05:17.938Z,8.63
2022-07-31T00:07:44.719Z,2.03
2022-07-31T00:10:11.540Z,1.50
2022-07-31T00:12:38.271Z,1.65
2022-07-31T00:15:10.376Z,3.90
2022-07-31T00:17:43.248Z,2.35
2022-07-31T00:20:16.006Z,2.17
2022-07-31T00:22:45.663Z,1.75
2022-07-31T00:25:15.455Z,2.85
2022-07-31T00:27:43.766Z,2.67
2022-07-31T00:30:20.531Z,3.97
2022-07-31T00:32:48.841Z,1.60
2022-07-31T00:35:18.904Z,2.22
2022-07-31T00:37:46.019Z,3.55
2022-07-31T00:40:17.425Z,1.45
2022-07-31T00:42:44.625Z,1.52
2022-07-31T00:45:13.418Z,2.55
2022-07-31T00:47:40.947Z,2.42
2022-07-31T00:50:10.692Z,2.42
2022-07-31T00:52:37.878Z,2.65
2022-07-31T00:55:05.904Z,3.78
2022-07-31T00:57:32.604Z,3.40
2022-07-31T01:00:01.600Z,2.78
2022-07-31T01:02:29.432Z,1.63
2022-07-31T01:04:56.204Z,3.70
2022-07-31T01:07:22.959Z,2.72
2022-07-31T01:09:53.947Z,1.75
2022-07-31T01:12:38.337Z,1.48
2022-07-31T01:15:10.133Z,2.00
2022-07-31T01:17:39.912Z,3.75
2022-07-31T01:20:09.101Z,2.50
2022-07-31T01:23:14.631Z,2.92
2022-07-31T01:26:29.093Z,1.83
2022-07-31T01:29:25.931Z,4.03
2022-07-31T01:32:27.494Z,1.75
2022-07-31T01:35:10.570Z,2.65
2022-07-31T01:37:48.348Z,6.07
2022-07-31T01:40:25.212Z,3.63
2022-07-31T01:43:02.006Z,4.22
2022-07-31T01:45:33.331Z,1.83
2022-07-31T01:48:02.940Z,2.33
2022-07-31T01:50:42.292Z,2.97
2022-07-31T01:53:17.587Z,3.47
2022-07-31T01:56:01.954Z,2.63
2022-07-31T01:58:36.852Z,2.40
2022-07-31T02:01:08.689Z,4.15
2022-07-31T02:03:44.066Z,3.65
2022-07-31T02:06:19.077Z,2.20
2022-07-31T02:08:50.609Z,1.92
2022-07-31T02:11:20.318Z,2.88
2022-07-31T02:13:53.433Z,1.80
2022-07-31T02:16:21.557Z,2.55
2022-07-31T02:18:53.883Z,1.98
2022-07-31T02:21:20.781Z,2.47
2022-07-31T02:23:47.540Z,2.17
2022-07-31T02:26:17.928Z,2.63
2022-07-31T02:28:48.097Z,2.53
2022-07-31T02:31:17.094Z,3.78
2022-07-31T02:33:48.158Z,2.30
2022-07-31T02:36:18.523Z,2.28
2022-07-31T02:38:46.122Z,2.80
2022-07-31T02:41:15.519Z,3.25
2022-07-31T02:43:44.768Z,7.72
2022-07-31T02:46:13.844Z,2.65
2022-07-31T02:48:41.652Z,4.38
2022-07-31T02:51:09.221Z,2.38
2022-07-31T02:53:37.964Z,3.30
2022-07-31T02:56:09.273Z,1.70
2022-07-31T02:58:42.680Z,3.17
2022-07-31T03:01:09.630Z,8.45
2022-07-31T03:03:36.626Z,2.72
2022-07-31T03:06:03.900Z,2.03
2022-07-31T03:08:31.182Z,3.28
2022-07-31T03:10:58.048Z,2.50
2022-07-31T03:13:29.466Z,1.73
2022-07-31T03:16:02.733Z,5.00
2022-07-31T03:18:31.141Z,6.95
2022-07-31T03:20:58.368Z,3.10
2022-07-31T03:23:36.139Z,3.67
2022-07-31T03:26:05.059Z,3.42
2022-07-31T03:28:34.873Z,3.40
2022-07-31T03:31:01.952Z,4.32
2022-07-31T03:33:28.961Z,3.58
2022-07-31T03:35:56.143Z,5.70
2022-07-31T03:38:39.050Z,3.17
2022-07-31T03:41:08.125Z,4.32
2022-07-31T03:43:45.556Z,2.50
2022-07-31T03:46:19.734Z,3.65
2022-07-31T03:48:48.066Z,3.20
2022-07-31T03:51:15.932Z,4.07
2022-07-31T03:53:44.480Z,3.38
2022-07-31T03:56:13.320Z,4.30
2022-07-31T03:58:40.403Z,2.65
2022-07-31T04:01:12.230Z,4.10
2022-07-31T04:03:39.720Z,3.72
2022-07-31T04:06:06.927Z,3.53
2022-07-31T04:08:34.369Z,3.25
2022-07-31T04:11:01.128Z,4.38
2022-07-31T04:13:28.358Z,3.92
2022-07-31T04:15:55.073Z,4.88
2022-07-31T04:18:24.296Z,3.17
2022-07-31T04:20:51.052Z,2.58
2022-07-31T04:23:17.793Z,3.88
2022-07-31T04:25:46.496Z,3.60
2022-07-31T04:28:13.303Z,5.65
2022-07-31T04:30:40.236Z,3.95
2022-07-31T04:33:07.052Z,3.40
2022-07-31T04:35:33.921Z,3.25
2022-07-31T04:38:01.110Z,4.50
2022-07-31T04:40:27.888Z,3.75
2022-07-31T04:42:55.304Z,7.82
2022-07-31T04:45:22.081Z,5.22
2022-07-31T04:47:48.845Z,3.80
2022-07-31T04:50:15.743Z,3.30
2022-07-31T04:52:42.571Z,5.82
2022-07-31T04:55:09.864Z,3.40
2022-07-31T04:57:36.652Z,3.80
2022-07-31T05:00:06.802Z,7.28
2022-07-31T05:02:33.592Z,6.40
2022-07-31T05:05:00.415Z,5.18
2022-07-31T05:07:29.741Z,2.85
2022-07-31T05:09:57.245Z,4.88
2022-07-31T05:12:24.170Z,5.13
2022-07-31T05:14:50.979Z,4.45
2022-07-31T05:17:17.722Z,4.20
2022-07-31T05:19:44.641Z,4.07
2022-07-31T05:22:12.332Z,4.38
2022-07-31T05:24:39.101Z,4.18
2022-07-31T05:27:06.962Z,4.28
2022-07-31T05:29:34.239Z,5.28
2022-07-31T05:32:02.977Z,5.35
2022-07-31T05:34:30.646Z,4.07
2022-07-31T05:37:01.199Z,5.75
2022-07-31T05:39:30.286Z,4.28
2022-07-31T05:41:57.687Z,4.82
2022-07-31T05:44:24.718Z,5.28
2022-07-31T05:49:18.408Z,6.75
2022-07-31T05:51:46.602Z,5.90
2022-07-31T05:54:14.075Z,6.43
2022-07-31T05:56:40.835Z,6.45
2022-07-31T05:59:07.642Z,6.07
2022-07-31T06:01:34.497Z,7.28
2022-07-31T06:04:02.501Z,7.50
2022-07-31T06:06:29.320Z,6.80
2022-07-31T06:08:59.435Z,6.50
2022-07-31T06:11:30.447Z,5.78
2022-07-31T06:13:57.159Z,7.00
2022-07-31T06:16:23.899Z,6.07
2022-07-31T06:18:50.870Z,8.85
2022-07-31T06:23:44.497Z,9.63
2022-07-31T06:26:12.382Z,8.32
2022-07-31T06:28:48.825Z,8.43
2022-07-31T06:31:18.519Z,12.55
2022-07-31T06:33:48.054Z,10.90
2022-07-31T06:36:19.420Z,10.77
2022-07-31T06:38:46.727Z,9.82
2022-07-31T06:41:36.848Z,9.85
2022-07-31T06:44:03.772Z,11.95
2022-07-31T06:46:30.541Z,9.15
2022-07-31T06:48:59.722Z,12.32
2022-07-31T06:51:31.408Z,14.40
2022-07-31T06:54:05.335Z,13.82
2022-07-31T06:56:33.536Z,12.30
2022-07-31T06:59:01.566Z,11.85
2022-07-31T07:01:29.716Z,12.70
2022-07-31T07:03:56.946Z,11.45
2022-07-31T07:06:24.072Z,12.65
2022-07-31T07:08:51.865Z,10.43
2022-07-31T07:11:19.941Z,12.00
2022-07-31T07:13:48.028Z,11.35
2022-07-31T07:16:15.559Z,12.60
2022-07-31T07:18:43.083Z,13.27
2022-07-31T07:21:11.394Z,13.63
2022-07-31T07:23:41.239Z,12.80
2022-07-31T07:26:08.280Z,13.10
2022-07-31T07:28:36.714Z,14.63
2022-07-31T07:31:05.043Z,14.70
2022-07-31T07:33:39.818Z,14.30
2022-07-31T07:36:23.776Z,14.15
2022-07-31T07:38:55.716Z,17.80
2022-07-31T07:41:24.959Z,14.98
2022-07-31T07:43:52.530Z,15.02
2022-07-31T07:46:22.769Z,15.23
2022-07-31T07:48:51.031Z,14.52
2022-07-31T07:51:19.554Z,12.70
2022-07-31T07:53:47.068Z,11.25
2022-07-31T07:56:13.940Z,14.98
2022-07-31T07:58:40.911Z,24.40
2022-07-31T08:01:07.790Z,16.83
2022-07-31T08:03:49.919Z,12.60
2022-07-31T08:06:23.334Z,13.85
2022-07-31T08:08:50.535Z,15.07
2022-07-31T08:11:18.090Z,15.25
2022-07-31T08:13:51.009Z,15.13
2022-07-31T08:16:20.143Z,15.23
2022-07-31T08:18:51.466Z,14.05
2022-07-31T08:21:18.620Z,16.85
2022-07-31T08:23:45.425Z,14.70
2022-07-31T08:26:13.858Z,15.35
2022-07-31T08:28:41.427Z,15.93
2022-07-31T08:31:08.376Z,16.95
2022-07-31T08:33:35.121Z,16.10
2022-07-31T08:36:04.723Z,15.88
2022-07-31T08:38:31.459Z,15.38
2022-07-31T08:40:58.260Z,14.40
2022-07-31T08:44:00.705Z,16.23
2022-07-31T08:46:13.145Z,17.13
2022-07-31T08:48:46.089Z,13.73
2022-07-31T08:51:14.009Z,13.40
2022-07-31T08:53:44.653Z,15.82
2022-07-31T08:56:12.692Z,16.70
2022-07-31T08:58:40.148Z,14.45
2022-07-31T09:01:11.135Z,16.70
2022-07-31T09:03:38.737Z,17.75
2022-07-31T09:06:06.702Z,13.50
2022-07-31T09:08:36.285Z,14.75
2022-07-31T09:11:09.742Z,16.85
2022-07-31T09:13:37.558Z,14.65
2022-07-31T09:16:08.887Z,17.33
2022-07-31T09:18:38.138Z,17.15
2022-07-31T09:21:07.280Z,15.82
2022-07-31T09:23:46.572Z,15.18
2022-07-31T09:26:13.497Z,17.10
2022-07-31T09:28:47.349Z,18.58
2022-07-31T09:31:14.797Z,16.10
2022-07-31T09:33:46.368Z,16.10
2022-07-31T09:36:15.033Z,15.80
2022-07-31T09:38:43.787Z,14.70
2022-07-31T09:41:56.770Z,15.02
2022-07-31T09:44:10.306Z,17.60
2022-07-31T09:46:46.058Z,18.52
2022-07-31T09:49:14.766Z,19.33
2022-07-31T09:51:48.200Z,14.88
2022-07-31T09:54:27.805Z,17.05
2022-07-31T09:56:55.037Z,15.95
2022-07-31T09:59:21.900Z,17.00
2022-07-31T10:01:49.423Z,17.23
2022-07-31T10:04:22.657Z,13.75
2022-07-31T10:06:52.116Z,15.32
2022-07-31T10:09:23.153Z,16.23
2022-07-31T10:11:52.270Z,16.23
2022-07-31T10:14:28.684Z,13.88
2022-07-31T10:17:00.776Z,14.68
2022-07-31T10:19:41.604Z,14.13
2022-07-31T10:22:12.444Z,15.65
2022-07-31T10:24:47.850Z,17.40
2022-07-31T10:27:19.248Z,14.05
2022-07-31T10:29:47.273Z,17.75
2022-07-31T10:32:14.250Z,18.35
2022-07-31T10:34:41.829Z,17.65
2022-07-31T10:37:18.692Z,19.58
2022-07-31T10:40:07.008Z,15.30
2022-07-31T10:43:16.933Z,14.75
2022-07-31T10:45:52.799Z,14.48
2022-07-31T10:48:20.580Z,12.68
2022-07-31T10:50:48.617Z,13.15
2022-07-31T10:53:18.312Z,12.93
2022-07-31T10:55:45.307Z,13.25
2022-07-31T10:58:19.759Z,13.68
2022-07-31T11:00:48.028Z,13.07
2022-07-31T11:03:20.602Z,16.30
2022-07-31T11:06:02.263Z,15.30
2022-07-31T11:08:52.235Z,12.45
2022-07-31T11:11:31.767Z,12.90
2022-07-31T11:14:00.179Z,11.55
2022-07-31T11:16:28.884Z,13.07
2022-07-31T11:19:09.495Z,12.85
2022-07-31T11:21:46.870Z,15.00
2022-07-31T11:24:16.446Z,11.85
2022-07-31T11:26:54.536Z,10.98
2022-07-31T11:29:59.396Z,12.00
2022-07-31T11:32:26.917Z,12.05
2022-07-31T11:34:57.070Z,11.00
2022-07-31T11:37:46.538Z,12.27
2022-07-31T11:40:15.525Z,13.05
2022-07-31T11:42:46.014Z,11.48
2022-07-31T11:45:16.753Z,12.30
2022-07-31T11:48:10.868Z,12.60
2022-07-31T11:50:45.630Z,10.25
2022-07-31T11:53:13.155Z,9.70
2022-07-31T11:56:00.792Z,11.38
2022-07-31T11:58:29.560Z,10.07
2022-07-31T12:01:03.445Z,9.45
2022-07-31T12:03:39.590Z,8.77
2022-07-31T12:06:10.146Z,11.70
2022-07-31T12:08:37.599Z,13.48
2022-07-31T12:11:10.793Z,8.55
2022-07-31T12:13:38.548Z,9.65
2022-07-31T12:16:11.370Z,12.57
2022-07-31T12:18:54.184Z,10.68
2022-07-31T12:21:41.052Z,9.02
2022-07-31T12:24:15.307Z,13.93
2022-07-31T12:27:00.123Z,10.52
2022-07-31T12:29:51.745Z,11.15
2022-07-31T12:32:28.503Z,10.20
2022-07-31T12:35:04.452Z,11.15
2022-07-31T12:37:41.791Z,10.23
2022-07-31T12:40:09.022Z,11.00
2022-07-31T12:42:44.734Z,9.50
2022-07-31T12:45:19.591Z,8.60
2022-07-31T12:47:51.696Z,9.50
2022-07-31T12:50:34.271Z,6.55
2022-07-31T12:53:04.585Z,8.35
2022-07-31T12:55:33.521Z,6.22
2022-07-31T12:58:00.696Z,6.63
2022-07-31T13:00:29.176Z,4.60
2022-07-31T13:02:57.994Z,6.72
2022-07-31T13:05:25.705Z,5.05
2022-07-31T13:07:53.153Z,5.75
2022-07-31T13:10:23.689Z,9.15
2022-07-31T13:12:51.412Z,6.93
2022-07-31T13:15:22.514Z,7.57
2022-07-31T13:17:51.606Z,5.10
2022-07-31T13:20:22.956Z,5.68
2022-07-31T13:22:49.705Z,4.15
2022-07-31T13:25:16.665Z,6.18
2022-07-31T13:27:43.734Z,5.07
2022-07-31T13:30:13.856Z,4.88
2022-07-31T13:32:43.138Z,3.78
2022-07-31T13:35:19.503Z,5.55
2022-07-31T13:37:54.384Z,6.45
2022-07-31T13:40:44.323Z,7.18
2022-07-31T13:43:12.228Z,3.67
2022-07-31T13:45:39.209Z,7.22
2022-07-31T13:48:09.654Z,5.25
2022-07-31T13:50:39.910Z,3.40
2022-07-31T13:53:07.092Z,4.93
2022-07-31T13:55:33.979Z,4.10
2022-07-31T13:58:01.486Z,5.75
2022-07-31T14:00:30.199Z,3.95
2022-07-31T14:02:58.439Z,6.43
2022-07-31T14:05:29.386Z,5.75
2022-07-31T14:08:30.605Z,5.10
2022-07-31T14:10:50.282Z,4.40
2022-07-31T14:13:18.680Z,4.80
2022-07-31T14:15:47.257Z,4.63
2022-07-31T14:18:16.416Z,6.25
2022-07-31T14:20:43.210Z,3.95
2022-07-31T14:23:12.504Z,4.90
2022-07-31T14:25:41.564Z,4.35
2022-07-31T14:28:10.572Z,4.00
2022-07-31T14:30:46.025Z,6.50
2022-07-31T14:33:14.252Z,3.70
2022-07-31T14:35:42.645Z,3.63
2022-07-31T14:38:09.639Z,3.67
2022-07-31T14:40:36.826Z,2.10
2022-07-31T14:43:04.061Z,5.25
2022-07-31T14:45:30.920Z,3.25
2022-07-31T14:47:57.822Z,5.35
2022-07-31T14:50:24.942Z,3.90
2022-07-31T14:52:51.793Z,4.38
2022-07-31T14:55:19.550Z,2.95
2022-07-31T14:57:51.664Z,4.75
2022-07-31T15:00:18.512Z,6.32
2022-07-31T15:02:45.671Z,3.70
2022-07-31T15:06:40.761Z,3.40
2022-07-31T15:07:59.906Z,3.83
2022-07-31T15:10:26.854Z,3.45
2022-07-31T15:12:53.637Z,4.03
2022-07-31T15:15:20.533Z,6.03
2022-07-31T15:17:47.629Z,5.65
2022-07-31T15:20:14.433Z,3.13
2022-07-31T15:22:41.208Z,3.78
2022-07-31T15:25:09.761Z,6.00
2022-07-31T15:27:39.065Z,4.13
2022-07-31T15:30:08.027Z,4.65
2022-07-31T15:32:41.579Z,3.95
2022-07-31T15:35:12.559Z,5.47
2022-07-31T15:37:46.369Z,4.38
2022-07-31T15:40:15.148Z,4.63
2022-07-31T15:42:44.247Z,4.13
2022-07-31T15:45:18.512Z,6.32
2022-07-31T15:47:46.485Z,5.82
2022-07-31T15:50:18.742Z,4.50
2022-07-31T15:52:45.921Z,5.35
2022-07-31T15:55:13.120Z,6.22
2022-07-31T15:57:40.138Z,8.18
2022-07-31T16:00:11.030Z,7.80
2022-07-31T16:02:43.186Z,7.43
2022-07-31T16:05:22.173Z,8.75
2022-07-31T16:08:32.331Z,7.53
2022-07-31T16:10:46.958Z,6.05
2022-07-31T16:13:14.990Z,6.22
2022-07-31T16:15:41.762Z,6.13
2022-07-31T16:18:08.513Z,6.90
2022-07-31T16:20:44.785Z,9.45
2022-07-31T16:23:11.630Z,8.23
2022-07-31T16:25:43.950Z,7.18
2022-07-31T16:28:10.756Z,7.40
2022-07-31T16:30:37.521Z,7.05
2022-07-31T16:33:04.316Z,5.45
2022-07-31T16:35:31.048Z,6.25
2022-07-31T16:37:57.813Z,7.00
2022-07-31T16:40:31.820Z,5.70
2022-07-31T16:43:47.902Z,6.15
2022-07-31T16:45:54.748Z,4.55
2022-07-31T16:48:22.054Z,6.35
2022-07-31T16:50:53.260Z,5.32
2022-07-31T16:54:11.674Z,6.15
2022-07-31T16:56:15.007Z,7.13
2022-07-31T16:58:42.168Z,5.13
2022-07-31T17:01:58.120Z,6.07
2022-07-31T17:04:04.200Z,5.68
2022-07-31T17:06:39.032Z,6.60
2022-07-31T17:09:16.451Z,4.55
2022-07-31T17:11:47.752Z,8.18
2022-07-31T17:14:17.284Z,6.05
2022-07-31T17:16:47.955Z,8.27
2022-07-31T17:19:42.389Z,9.77
2022-07-31T17:22:05.873Z,8.35
2022-07-31T17:24:36.928Z,7.90
2022-07-31T17:27:08.294Z,9.20
2022-07-31T17:29:39.577Z,6.53
2022-07-31T17:32:06.695Z,5.45
2022-07-31T17:34:35.450Z,7.68
2022-07-31T17:37:02.576Z,8.52
2022-07-31T17:39:31.161Z,9.07
2022-07-31T17:42:02.205Z,7.57
2022-07-31T17:44:29.593Z,9.13
2022-07-31T17:46:57.761Z,8.40
2022-07-31T17:49:29.402Z,8.82
2022-07-31T17:51:57.788Z,8.35
2022-07-31T17:54:30.483Z,10.68
2022-07-31T17:56:57.842Z,10.55
2022-07-31T17:59:25.538Z,8.95
2022-07-31T18:01:53.759Z,5.90
2022-07-31T18:04:22.588Z,8.32
2022-07-31T18:06:54.227Z,9.45
2022-07-31T18:09:23.329Z,9.75
2022-07-31T18:11:54.873Z,8.95
2022-07-31T18:14:24.464Z,9.82
2022-07-31T18:16:52.484Z,8.10
2022-07-31T18:19:21.373Z,9.63
2022-07-31T18:21:48.570Z,6.35
2022-07-31T18:24:15.398Z,7.68
2022-07-31T18:26:44.352Z,9.65
2022-07-31T18:29:13.923Z,7.07
2022-07-31T18:31:40.637Z,6.28
2022-07-31T18:34:07.523Z,9.68
2022-07-31T18:36:35.512Z,11.50
2022-07-31T18:39:06.131Z,8.70
2022-07-31T18:41:34.164Z,9.13
2022-07-31T18:44:02.008Z,13.30
2022-07-31T18:46:29.216Z,9.63
2022-07-31T18:48:59.349Z,9.23
2022-07-31T18:51:28.337Z,6.00
2022-07-31T18:53:55.626Z,8.48
2022-07-31T18:56:24.767Z,10.35
2022-07-31T18:58:54.267Z,7.60
2022-07-31T19:01:23.366Z,10.57
2022-07-31T19:03:51.523Z,8.05
2022-07-31T19:06:23.941Z,9.02
2022-07-31T19:08:52.008Z,8.85
2022-07-31T19:11:20.271Z,7.57
2022-07-31T19:13:47.624Z,7.20
2022-07-31T19:16:15.712Z,7.20
2022-07-31T19:18:50.157Z,9.70
2022-07-31T19:21:41.363Z,11.95
2022-07-31T19:24:06.882Z,9.55
2022-07-31T19:26:33.781Z,13.93
2022-07-31T19:29:00.520Z,13.23
2022-07-31T19:31:27.561Z,9.07
2022-07-31T19:33:54.331Z,13.02
2022-07-31T19:36:23.584Z,9.52
2022-07-31T19:38:52.773Z,12.27
2022-07-31T19:41:20.822Z,9.13
2022-07-31T19:43:47.569Z,6.90
2022-07-31T19:46:14.363Z,8.20
2022-07-31T19:48:46.168Z,7.65
2022-07-31T19:51:15.740Z,7.93
2022-07-31T19:53:44.399Z,13.35
2022-07-31T19:56:19.661Z,16.08
2022-07-31T19:58:50.350Z,7.28
2022-07-31T20:01:20.033Z,12.60
2022-07-31T20:03:48.868Z,11.25
2022-07-31T20:06:16.018Z,11.18
2022-07-31T20:08:43.318Z,12.77
2022-07-31T20:11:10.199Z,9.07
2022-07-31T20:13:40.486Z,13.32
2022-07-31T20:16:07.431Z,11.15
2022-07-31T20:18:34.647Z,17.10
2022-07-31T20:21:08.339Z,12.48
2022-07-31T20:23:38.548Z,11.13
2022-07-31T20:26:11.415Z,8.35
2022-07-31T20:28:42.459Z,11.70
2022-07-31T20:31:16.076Z,9.50
2022-07-31T20:34:06.127Z,11.73
2022-07-31T20:36:33.006Z,8.93
2022-07-31T20:38:59.824Z,9.32
2022-07-31T20:41:29.237Z,16.63
2022-07-31T20:44:01.135Z,7.55
2022-07-31T20:46:27.861Z,8.35
2022-07-31T20:48:57.173Z,8.68
2022-07-31T20:51:24.424Z,9.80
2022-07-31T20:53:53.193Z,7.75
2022-07-31T20:56:20.767Z,9.65
2022-07-31T20:58:51.737Z,11.25
2022-07-31T21:01:21.291Z,10.35
2022-07-31T21:03:49.740Z,8.43
2022-07-31T21:06:16.836Z,9.70
2022-07-31T21:08:43.686Z,8.38
2022-07-31T21:11:10.516Z,8.43
2022-07-31T21:13:38.079Z,14.80
2022-07-31T21:16:05.506Z,7.65
2022-07-31T21:18:34.659Z,13.00
2022-07-31T21:21:02.250Z,12.43
2022-07-31T21:23:29.209Z,8.38
2022-07-31T21:26:01.392Z,6.75
2022-07-31T21:28:28.657Z,6.60
2022-07-31T21:30:56.073Z,6.28
2022-07-31T21:33:25.670Z,6.57
2022-07-31T21:35:54.124Z,6.95
2022-07-31T21:38:22.197Z,5.43
2022-07-31T21:40:53.823Z,9.82
2022-07-31T21:43:22.729Z,12.93
2022-07-31T21:45:55.092Z,5.70
2022-07-31T21:48:26.877Z,7.22
2022-07-31T21:50:55.294Z,7.72
2022-07-31T21:53:23.572Z,6.13
2022-07-31T21:55:53.482Z,6.20
2022-07-31T21:58:20.488Z,6.90
2022-07-31T22:00:47.608Z,8.38
2022-07-31T22:03:14.467Z,6.03
2022-07-31T22:06:00.143Z,7.43
2022-07-31T22:08:26.859Z,6.93
2022-07-31T22:10:53.881Z,5.32
2022-07-31T22:13:39.740Z,4.53
2022-07-31T22:16:06.997Z,4.22
2022-07-31T22:18:35.811Z,5.28
2022-07-31T22:21:07.647Z,3.72
2022-07-31T22:23:36.138Z,3.25
2022-07-31T22:26:04.310Z,4.28
2022-07-31T22:28:31.948Z,6.32
2022-07-31T22:31:02.058Z,3.40
2022-07-31T22:33:28.909Z,3.90
2022-07-31T22:36:00.707Z,2.78
2022-07-31T22:38:30.269Z,2.70
2022-07-31T22:40:59.877Z,2.10
2022-07-31T22:44:11.138Z,2.72
2022-07-31T22:46:15.183Z,2.67
2022-07-31T22:48:45.033Z,2.53
2022-07-31T22:51:14.649Z,3.10
2022-07-31T22:53:43.879Z,2.13
2022-07-31T22:56:10.939Z,2.63
2022-07-31T22:58:37.799Z,3.28
2022-07-31T23:01:04.953Z,3.50
2022-07-31T23:03:31.710Z,3.05
2022-07-31T23:06:13.058Z,1.60
2022-07-31T23:08:49.481Z,2.00
2022-07-31T23:11:20.604Z,1.95
2022-07-31T23:13:47.451Z,3.08
2022-07-31T23:16:14.306Z,2.58
2022-07-31T23:18:41.037Z,2.88
2022-07-31T23:21:08.927Z,1.90
2022-07-31T23:23:38.372Z,3.55
2022-07-31T23:26:05.335Z,2.22
2022-07-31T23:28:33.725Z,2.40
2022-07-31T23:31:00.525Z,2.40
2022-07-31T23:33:27.686Z,3.33
2022-07-31T23:35:54.539Z,2.13
2022-07-31T23:38:21.874Z,2.88
2022-07-31T23:40:48.641Z,2.45
2022-07-31T23:43:20.623Z,2.83
2022-07-31T23:45:47.898Z,4.07
2022-07-31T23:48:15.610Z,3.42
2022-07-31T23:50:44.515Z,3.13
2022-07-31T23:53:11.465Z,2.95
2022-07-31T23:55:42.548Z,2.83
2022-07-31T23:58:10.410Z,3.33
